createdAt,value
2018-10-19T00:00:54.448Z,101455.31
2018-10-19T00:03:23.271Z,101457.27
2018-10-19T00:05:52.485Z,101457.52
2018-10-19T00:08:21.444Z,101449.76
2018-10-19T00:10:51.203Z,101452.66
2018-10-19T00:13:20.590Z,101451.10
2018-10-19T00:15:50.084Z,101454.70
2018-10-19T00:18:18.889Z,101442.45
2018-10-19T00:20:47.661Z,101447.66
2018-10-19T00:23:16.491Z,101443.11
2018-10-19T00:25:45.776Z,101443.96
2018-10-19T00:28:15.216Z,101442.09
2018-10-19T00:30:44.039Z,101453.19
2018-10-19T00:33:12.870Z,101450.43
2018-10-19T00:35:43.100Z,101451.63
2018-10-19T00:38:12.331Z,101450.30
2018-10-19T00:40:41.791Z,101444.19
2018-10-19T00:43:12.520Z,101446.95
2018-10-19T00:45:46.258Z,101444.06
2018-10-19T00:48:16.150Z,101446.95
2018-10-19T00:50:45.155Z,101449.16
2018-10-19T00:53:15.230Z,101460.08
2018-10-19T00:55:44.004Z,101450.72
2018-10-19T00:58:12.938Z,101456.00
2018-10-19T01:00:43.632Z,101465.97
2018-10-19T01:03:12.474Z,101458.29
2018-10-19T01:05:42.248Z,101448.59
2018-10-19T01:08:12.396Z,101455.65
2018-10-19T01:10:41.929Z,101460.60
2018-10-19T01:13:11.823Z,101467.05
2018-10-19T01:15:41.472Z,101461.33
2018-10-19T01:18:10.536Z,101477.05
2018-10-19T01:20:39.592Z,101472.49
2018-10-19T01:23:08.670Z,101474.89
2018-10-19T01:25:42.402Z,101475.73
2018-10-19T01:28:13.157Z,101474.56
2018-10-19T01:30:42.385Z,101471.80
2018-10-19T01:33:11.643Z,101472.76
2018-10-19T01:35:41.579Z,101467.48
2018-10-19T01:38:10.926Z,101475.40
2018-10-19T01:40:40.849Z,101473.03
2018-10-19T01:43:09.903Z,101469.66
2018-10-19T01:45:43.528Z,101468.11
2018-10-19T01:48:12.464Z,101463.30
2018-10-19T01:50:41.808Z,101468.11
2018-10-19T01:53:11.327Z,101474.34
2018-10-19T01:55:41.224Z,101474.47
2018-10-19T01:58:10.228Z,101470.98
2018-10-19T02:00:39.920Z,101463.55
2018-10-19T02:03:09.602Z,101466.55
2018-10-19T02:05:39.192Z,101468.58
2018-10-19T02:08:10.821Z,101471.70
2018-10-19T02:10:40.711Z,101473.98
2018-10-19T02:13:10.776Z,101473.14
2018-10-19T02:15:40.431Z,101482.02
2018-10-19T02:18:09.811Z,101480.61
2018-10-19T02:20:40.919Z,101480.84
2018-10-19T02:23:09.855Z,101476.04
2018-10-19T02:25:39.698Z,101475.20
2018-10-19T02:28:09.095Z,101488.16
2018-10-19T02:30:37.904Z,101486.96
2018-10-19T02:33:06.857Z,101490.80
2018-10-19T02:35:36.137Z,101487.06
2018-10-19T02:38:05.895Z,101504.45
2018-10-19T02:40:34.703Z,101503.02
2018-10-19T02:43:04.209Z,101499.27
2018-10-19T02:45:35.238Z,101498.06
2018-10-19T02:48:04.565Z,101501.04
2018-10-19T02:50:33.342Z,101501.52
2018-10-19T02:53:02.216Z,101501.04
2018-10-19T02:55:31.628Z,101495.75
2018-10-19T02:58:01.546Z,101498.48
2018-10-19T03:00:31.591Z,101503.05
2018-10-19T03:03:00.480Z,101505.69
2018-10-19T03:05:29.252Z,101503.44
2018-10-19T03:07:58.101Z,101510.88
2018-10-19T03:10:27.357Z,101502.62
2018-10-19T03:12:56.741Z,101508.75
2018-10-19T03:15:26.251Z,101503.59
2018-10-19T03:17:55.160Z,101501.79
2018-10-19T03:20:24.032Z,101502.51
2018-10-19T03:22:53.443Z,101480.05
2018-10-19T03:25:23.334Z,101497.28
2018-10-19T03:27:52.164Z,101493.80
2018-10-19T03:30:20.974Z,101490.66
2018-10-19T03:32:49.830Z,101482.25
2018-10-19T03:35:19.475Z,101494.11
2018-10-19T03:37:49.068Z,101482.22
2018-10-19T03:40:17.893Z,101489.30
2018-10-19T03:42:46.699Z,101488.83
2018-10-19T03:45:15.995Z,101498.92
2018-10-19T03:47:44.724Z,101484.42
2018-10-19T03:50:13.531Z,101488.59
2018-10-19T03:52:42.407Z,101495.44
2018-10-19T03:55:12.398Z,101494.95
2018-10-19T03:57:41.892Z,101484.50
2018-10-19T04:00:13.982Z,101491.83
2018-10-19T04:02:42.778Z,101493.51
2018-10-19T04:05:12.429Z,101492.55
2018-10-19T04:07:42.762Z,101479.81
2018-10-19T04:10:12.527Z,101482.56
2018-10-19T04:12:42.326Z,101487.09
2018-10-19T04:15:12.672Z,101484.20
2018-10-19T04:17:41.831Z,101492.69
2018-10-19T04:20:10.936Z,101489.31
2018-10-19T04:22:40.493Z,101492.56
2018-10-19T04:25:10.128Z,101495.56
2018-10-19T04:27:40.003Z,101504.34
2018-10-19T04:30:09.743Z,101505.06
2018-10-19T04:32:38.709Z,101503.97
2018-10-19T04:35:08.247Z,101504.92
2018-10-19T04:37:37.421Z,101509.58
2018-10-19T04:40:11.226Z,101497.19
2018-10-19T04:42:41.008Z,101502.59
2018-10-19T04:45:10.546Z,101498.37
2018-10-19T04:47:41.255Z,101504.02
2018-10-19T04:50:10.496Z,101504.37
2018-10-19T04:52:40.607Z,101507.69
2018-10-19T04:55:14.273Z,101503.59
2018-10-19T04:57:43.357Z,101507.55
2018-10-19T05:00:13.628Z,101505.02
2018-10-19T05:02:43.277Z,101512.17
2018-10-19T05:05:12.577Z,101509.76
2018-10-19T05:07:41.784Z,101504.22
2018-10-19T05:10:12.144Z,101502.48
2018-10-19T05:12:42.195Z,101509.43
2018-10-19T05:15:12.866Z,101512.50
2018-10-19T05:17:43.379Z,101510.44
2018-10-19T05:20:13.363Z,101502.38
2018-10-19T05:22:43.460Z,101506.92
2018-10-19T05:25:13.576Z,101507.83
2018-10-19T05:27:42.840Z,101506.73
2018-10-19T05:30:13.021Z,101509.13
2018-10-19T05:32:43.494Z,101505.25
2018-10-19T05:35:13.272Z,101509.16
2018-10-19T05:37:42.871Z,101507.45
2018-10-19T05:40:12.177Z,101508.16
2018-10-19T05:42:41.483Z,101509.06
2018-10-19T05:45:12.726Z,101517.11
2018-10-19T05:47:42.739Z,101508.19
2018-10-19T05:50:12.842Z,101511.19
2018-10-19T05:52:42.469Z,101508.19
2018-10-19T05:55:12.450Z,101513.23
2018-10-19T05:57:41.788Z,101519.72
2018-10-19T06:00:12.529Z,101516.29
2018-10-19T06:02:41.890Z,101512.89
2018-10-19T06:05:11.644Z,101519.61
2018-10-19T06:07:41.569Z,101516.34
2018-10-19T06:10:11.667Z,101515.77
2018-10-19T06:12:42.351Z,101517.09
2018-10-19T06:15:12.472Z,101510.34
2018-10-19T06:17:41.760Z,101517.38
2018-10-19T06:20:11.048Z,101523.34
2018-10-19T06:22:41.008Z,101520.78
2018-10-19T06:25:11.513Z,101522.78
2018-10-19T06:27:40.821Z,101521.81
2018-10-19T06:30:10.561Z,101528.05
2018-10-19T06:32:39.995Z,101530.16
2018-10-19T06:35:10.175Z,101534.55
2018-10-19T06:37:39.418Z,101532.73
2018-10-19T06:40:08.845Z,101534.64
2018-10-19T06:42:37.811Z,101530.39
2018-10-19T06:45:07.373Z,101529.69
2018-10-19T06:47:36.423Z,101528.80
2018-10-19T06:50:07.501Z,101534.24
2018-10-19T06:52:36.396Z,101540.20
2018-10-19T06:55:08.151Z,101533.89
2018-10-19T06:57:37.037Z,101536.48
2018-10-19T07:00:06.853Z,101526.62
2018-10-19T07:02:35.762Z,101542.01
2018-10-19T07:05:05.187Z,101536.92
2018-10-19T07:07:34.328Z,101541.73
2018-10-19T07:10:04.150Z,101545.85
2018-10-19T07:12:33.960Z,101551.64
2018-10-19T07:15:03.935Z,101547.03
2018-10-19T07:17:33.126Z,101553.45
2018-10-19T07:20:02.395Z,101550.95
2018-10-19T07:22:31.985Z,101555.45
2018-10-19T07:25:01.599Z,101560.08
2018-10-19T07:27:31.033Z,101558.38
2018-10-19T07:30:00.536Z,101548.81
2018-10-19T07:32:29.684Z,101562.66
2018-10-19T07:34:59.745Z,101558.02
2018-10-19T07:37:28.709Z,101557.55
2018-10-19T07:39:58.374Z,101558.06
2018-10-19T07:42:27.593Z,101564.23
2018-10-19T07:44:56.364Z,101561.10
2018-10-19T07:47:25.768Z,101558.87
2018-10-19T07:49:55.050Z,101557.03
2018-10-19T07:52:24.230Z,101560.97
2018-10-19T07:54:55.560Z,101569.78
2018-10-19T07:57:24.575Z,101565.37
2018-10-19T07:59:54.088Z,101561.89
2018-10-19T08:02:23.126Z,101562.34
2018-10-19T08:04:52.413Z,101565.25
2018-10-19T08:07:21.451Z,101564.84
2018-10-19T08:09:52.342Z,101566.45
2018-10-19T08:12:21.915Z,101567.21
2018-10-19T08:14:51.336Z,101566.45
2018-10-19T08:17:20.372Z,101565.64
2018-10-19T08:19:49.560Z,101567.69
2018-10-19T08:22:19.448Z,101566.63
2018-10-19T08:24:49.479Z,101570.45
2018-10-19T08:27:18.531Z,101575.93
2018-10-19T08:29:47.464Z,101574.94
2018-10-19T08:32:16.666Z,101577.27
2018-10-19T08:34:47.201Z,101584.12
2018-10-19T08:37:46.552Z,101582.44
2018-10-19T08:40:15.588Z,101573.61
2018-10-19T08:42:44.638Z,101574.97
2018-10-19T08:45:13.830Z,101577.05
2018-10-19T08:47:42.915Z,101572.93
2018-10-19T08:50:12.568Z,101575.31
2018-10-19T08:52:42.007Z,101579.36
2018-10-19T08:55:12.309Z,101581.25
2018-10-19T08:57:41.862Z,101581.77
2018-10-19T09:00:12.854Z,101581.97
2018-10-19T09:02:42.315Z,101584.97
2018-10-19T09:05:11.714Z,101581.48
2018-10-19T09:07:41.118Z,101586.17
2018-10-19T09:10:11.435Z,101591.50
2018-10-19T09:12:42.395Z,101584.67
2018-10-19T09:15:12.578Z,101591.00
2018-10-19T09:17:42.357Z,101586.36
2018-10-19T09:20:11.395Z,101583.35
2018-10-19T09:22:41.708Z,101580.88
2018-10-19T09:25:11.226Z,101586.22
2018-10-19T09:27:40.902Z,101583.23
2018-10-19T09:30:09.771Z,101577.39
2018-10-19T09:32:38.691Z,101571.23
2018-10-19T09:36:12.007Z,101571.41
2018-10-19T09:38:41.074Z,101570.73
2018-10-19T09:41:10.147Z,101573.89
2018-10-19T09:43:39.401Z,101576.05
2018-10-19T09:46:08.521Z,101574.02
2018-10-19T09:48:37.459Z,101571.19
2018-10-19T09:51:06.298Z,101567.70
2018-10-19T09:53:35.358Z,101577.38
2018-10-19T09:56:05.324Z,101574.86
2018-10-19T09:58:34.047Z,101572.15
2018-10-19T10:01:08.693Z,101570.14
2018-10-19T10:03:37.569Z,101565.25
2018-10-19T10:06:06.520Z,101566.92
2018-10-19T10:08:36.146Z,101558.55
2018-10-19T10:11:05.323Z,101554.83
2018-10-19T10:13:36.518Z,101558.13
2018-10-19T10:16:06.047Z,101555.27
2018-10-19T10:18:35.287Z,101557.27
2018-10-19T10:21:04.832Z,101563.05
2018-10-19T10:23:34.569Z,101556.02
2018-10-19T10:26:04.292Z,101549.92
2018-10-19T10:28:33.316Z,101553.25
2018-10-19T10:31:02.495Z,101554.87
2018-10-19T10:33:33.395Z,101551.02
2018-10-19T10:36:02.611Z,101545.14
2018-10-19T10:38:31.640Z,101534.08
2018-10-19T10:41:00.888Z,101538.37
2018-10-19T10:43:30.113Z,101538.02
2018-10-19T10:45:59.345Z,101542.51
2018-10-19T10:48:28.346Z,101534.41
2018-10-19T10:52:00.183Z,101530.47
2018-10-19T10:54:29.960Z,101533.70
2018-10-19T10:56:58.883Z,101528.31
2018-10-19T10:59:28.582Z,101526.05
2018-10-19T11:01:57.627Z,101532.87
2018-10-19T11:04:26.502Z,101530.41
2018-10-19T11:06:55.531Z,101526.47
2018-10-19T11:09:24.850Z,101526.08
2018-10-19T11:11:54.358Z,101527.75
2018-10-19T11:14:23.846Z,101522.74
2018-10-19T11:16:53.590Z,101521.95
2018-10-19T11:19:22.459Z,101521.05
2018-10-19T11:21:52.105Z,101517.16
2018-10-19T11:24:21.597Z,101519.13
2018-10-19T11:26:50.472Z,101514.77
2018-10-19T11:29:19.386Z,101506.86
2018-10-19T11:31:48.304Z,101510.02
2018-10-19T11:34:19.185Z,101505.11
2018-10-19T11:36:48.086Z,101498.03
2018-10-19T11:39:17.011Z,101506.70
2018-10-19T11:41:46.249Z,101506.11
2018-10-19T11:44:15.163Z,101504.70
2018-10-19T11:46:44.142Z,101502.15
2018-10-19T11:49:13.221Z,101497.56
2018-10-19T11:51:42.600Z,101492.10
2018-10-19T11:54:12.881Z,101494.60
2018-10-19T11:56:42.664Z,101494.33
2018-10-19T11:59:13.437Z,101499.30
2018-10-19T12:01:42.623Z,101487.28
2018-10-19T12:04:12.244Z,101494.43
2018-10-19T12:06:42.515Z,101494.02
2018-10-19T12:09:13.109Z,101490.13
2018-10-19T12:11:43.502Z,101492.81
2018-10-19T12:14:13.620Z,101483.09
2018-10-19T12:16:50.839Z,101475.30
2018-10-19T12:19:19.834Z,101470.67
2018-10-19T12:21:49.268Z,101462.23
2018-10-19T12:24:18.763Z,101470.62
2018-10-19T12:26:48.029Z,101463.58
2018-10-19T12:29:16.954Z,101466.31
2018-10-19T12:31:45.948Z,101463.82
2018-10-19T12:34:15.570Z,101468.49
2018-10-19T12:36:44.552Z,101464.47
2018-10-19T12:39:13.495Z,101457.86
2018-10-19T12:41:43.212Z,101451.27
2018-10-19T12:44:12.275Z,101456.14
2018-10-19T12:46:52.676Z,101451.78
2018-10-19T12:49:23.006Z,101444.58
2018-10-19T12:51:51.959Z,101449.01
2018-10-19T12:54:22.413Z,101444.41
2018-10-19T12:56:51.771Z,101443.20
2018-10-19T12:59:21.707Z,101443.06
2018-10-19T13:01:51.650Z,101440.19
2018-10-19T13:04:20.839Z,101438.69
2018-10-19T13:06:50.767Z,101439.97
2018-10-19T13:09:20.866Z,101447.39
2018-10-19T13:11:51.306Z,101440.83
2018-10-19T13:14:21.625Z,101446.27
2018-10-19T13:16:54.590Z,101444.66
2018-10-19T13:19:23.916Z,101438.67
2018-10-19T13:21:53.863Z,101439.69
2018-10-19T13:24:27.937Z,101445.30
2018-10-19T13:26:57.347Z,101440.95
2018-10-19T13:29:32.646Z,101448.50
2018-10-19T13:32:01.833Z,101449.84
2018-10-19T13:34:31.498Z,101445.50
2018-10-19T13:37:00.493Z,101442.21
2018-10-19T13:39:29.569Z,101449.38
2018-10-19T13:41:59.489Z,101435.23
2018-10-19T13:44:29.199Z,101436.58
2018-10-19T13:47:00.064Z,101436.71
2018-10-19T13:49:29.100Z,101437.83
2018-10-19T13:51:58.417Z,101432.04
2018-10-19T13:54:28.054Z,101429.73
2018-10-19T13:56:57.201Z,101429.80
2018-10-19T13:59:26.936Z,101436.16
2018-10-19T14:01:56.131Z,101437.17
2018-10-19T14:04:25.079Z,101429.68
2018-10-19T14:06:54.033Z,101427.45
2018-10-19T14:09:24.199Z,101430.45
2018-10-19T14:11:54.397Z,101434.48
2018-10-19T14:14:25.191Z,101424.76
2018-10-19T14:16:54.600Z,101426.16
2018-10-19T14:19:23.504Z,101422.00
2018-10-19T14:21:53.110Z,101418.54
2018-10-19T14:24:23.160Z,101415.85
2018-10-19T14:26:52.371Z,101408.81
2018-10-19T14:29:21.229Z,101407.98
2018-10-19T14:31:50.258Z,101409.00
2018-10-19T14:34:19.845Z,101401.51
2018-10-19T14:36:48.920Z,101404.48
2018-10-19T14:39:17.921Z,101404.34
2018-10-19T14:42:11.638Z,101403.70
2018-10-19T14:44:43.454Z,101402.92
2018-10-19T14:47:12.911Z,101394.81
2018-10-19T14:49:42.100Z,101392.56
2018-10-19T14:52:11.651Z,101392.78
2018-10-19T14:54:42.180Z,101399.87
2018-10-19T14:57:11.917Z,101388.53
2018-10-19T14:59:42.098Z,101394.88
2018-10-19T15:02:11.491Z,101389.93
2018-10-19T15:04:40.960Z,101384.64
2018-10-19T15:07:10.726Z,101387.42
2018-10-19T15:09:41.100Z,101389.40
2018-10-19T15:12:11.380Z,101392.72
2018-10-19T15:14:41.356Z,101394.98
2018-10-19T15:17:12.291Z,101387.88
2018-10-19T15:19:42.084Z,101393.66
2018-10-19T15:22:12.147Z,101398.77
2018-10-19T15:24:41.983Z,101399.49
2018-10-19T15:27:11.789Z,101400.28
2018-10-19T15:29:40.858Z,101400.66
2018-10-19T15:32:10.114Z,101400.94
2018-10-19T15:34:40.020Z,101404.08
2018-10-19T15:37:10.572Z,101401.16
2018-10-19T15:39:39.727Z,101410.59
2018-10-19T15:42:08.605Z,101405.50
2018-10-19T15:44:37.776Z,101408.45
2018-10-19T15:47:06.812Z,101406.37
2018-10-19T15:49:35.748Z,101406.48
2018-10-19T15:52:04.619Z,101398.16
2018-10-19T15:54:34.055Z,101401.91
2018-10-19T15:57:03.045Z,101400.98
2018-10-19T16:03:04.803Z,101395.97
2018-10-19T16:05:34.082Z,101403.35
2018-10-19T16:08:02.856Z,101392.34
2018-10-19T16:10:32.759Z,101406.09
2018-10-19T16:13:02.213Z,101405.27
2018-10-19T16:15:32.859Z,101390.95
2018-10-19T16:18:01.795Z,101396.67
2018-10-19T16:20:31.531Z,101393.20
2018-10-19T16:23:01.008Z,101389.37
2018-10-19T16:25:30.828Z,101393.41
2018-10-19T16:27:59.611Z,101387.92
2018-10-19T16:30:28.439Z,101396.77
2018-10-19T16:32:57.259Z,101397.13
2018-10-19T16:35:27.755Z,101389.61
2018-10-19T16:37:56.525Z,101392.13
2018-10-19T16:40:27.034Z,101391.48
2018-10-19T16:42:55.996Z,101384.46
2018-10-19T16:45:25.092Z,101383.78
2018-10-19T16:47:54.154Z,101377.62
2018-10-19T16:50:22.975Z,101380.10
2018-10-19T16:52:51.876Z,101379.78
2018-10-19T16:55:23.518Z,101379.45
2018-10-19T16:57:52.361Z,101374.92
2018-10-19T17:00:22.094Z,101380.75
2018-10-19T17:02:51.532Z,101375.72
2018-10-19T17:05:20.431Z,101379.56
2018-10-19T17:07:49.290Z,101377.99
2018-10-19T17:10:19.060Z,101381.33
2018-10-19T17:12:48.505Z,101385.44
2018-10-19T17:15:18.024Z,101383.41
2018-10-19T17:17:46.822Z,101387.39
2018-10-19T17:20:15.647Z,101386.18
2018-10-19T17:22:45.151Z,101383.00
2018-10-19T17:25:15.317Z,101377.61
2018-10-19T17:27:44.312Z,101380.77
2018-10-19T17:30:14.332Z,101382.23
2018-10-19T17:32:43.174Z,101379.03
2018-10-19T17:35:13.144Z,101379.19
2018-10-19T17:37:42.194Z,101384.64
2018-10-19T17:40:11.388Z,101380.30
2018-10-19T17:42:41.433Z,101384.91
2018-10-19T17:45:11.436Z,101382.20
2018-10-19T17:47:42.753Z,101384.52
2018-10-19T17:50:12.395Z,101383.12
2018-10-19T17:52:41.730Z,101380.59
2018-10-19T17:55:12.225Z,101379.72
2018-10-19T17:57:41.541Z,101370.90
2018-10-19T18:00:13.564Z,101371.20
2018-10-19T18:02:42.356Z,101374.31
2018-10-19T18:05:11.661Z,101375.94
2018-10-19T18:07:41.196Z,101370.95
2018-10-19T18:10:11.597Z,101372.73
2018-10-19T18:12:42.597Z,101362.69
2018-10-19T18:15:12.471Z,101367.02
2018-10-19T18:17:41.899Z,101368.64
2018-10-19T18:20:11.068Z,101366.92
2018-10-19T18:22:41.488Z,101366.86
2018-10-19T18:25:10.826Z,101370.61
2018-10-19T18:27:40.042Z,101369.27
2018-10-19T18:30:09.380Z,101375.66
2018-10-19T18:32:39.227Z,101373.03
2018-10-19T18:35:10.631Z,101377.30
2018-10-19T18:37:42.021Z,101373.59
2018-10-19T18:40:12.510Z,101376.66
2018-10-19T18:42:41.947Z,101380.53
2018-10-19T18:45:11.342Z,101380.30
2018-10-19T18:47:41.151Z,101384.57
2018-10-19T18:50:13.291Z,101381.22
2018-10-19T18:52:42.952Z,101383.18
2018-10-19T18:55:12.713Z,101381.12
2018-10-19T18:57:42.724Z,101375.09
2018-10-19T19:00:13.088Z,101387.11
2018-10-19T19:02:43.751Z,101380.55
2018-10-19T19:05:12.648Z,101380.98
2018-10-19T19:07:42.038Z,101385.77
2018-10-19T19:10:14.810Z,101383.54
2018-10-19T19:12:44.775Z,101384.31
2018-10-19T19:15:14.568Z,101386.77
2018-10-19T19:17:43.518Z,101381.07
2018-10-19T19:20:17.749Z,101387.39
2018-10-19T19:22:47.120Z,101386.23
2018-10-19T19:25:21.041Z,101393.85
2018-10-19T19:27:49.906Z,101394.13
2018-10-19T19:30:19.600Z,101389.45
2018-10-19T19:32:53.517Z,101385.89
2018-10-19T19:35:23.097Z,101381.73
2018-10-19T19:38:06.588Z,101378.73
2018-10-19T19:40:40.523Z,101384.88
2018-10-19T19:43:10.512Z,101369.80
2018-10-19T19:45:39.824Z,101361.08
2018-10-19T19:48:13.694Z,101377.09
2018-10-19T19:51:13.813Z,101375.28
2018-10-19T19:53:43.553Z,101370.81
2018-10-19T19:56:13.784Z,101371.30
2018-10-19T19:58:42.534Z,101369.10
2018-10-19T20:01:12.651Z,101367.70
2018-10-19T20:03:41.960Z,101366.97
2018-10-19T20:06:11.770Z,101364.39
2018-10-19T20:08:41.761Z,101357.16
2018-10-19T20:11:11.606Z,101360.86
2018-10-19T20:13:41.590Z,101361.14
2018-10-19T20:16:12.428Z,101364.42
2018-10-19T20:18:41.949Z,101359.95
2018-10-19T20:21:12.005Z,101358.23
2018-10-19T20:23:41.436Z,101363.23
2018-10-19T20:26:11.055Z,101363.44
2018-10-19T20:28:40.553Z,101362.19
2018-10-19T20:31:10.603Z,101364.28
2018-10-19T20:33:40.383Z,101351.34
2018-10-19T20:36:09.775Z,101364.67
2018-10-19T20:38:38.570Z,101361.73
2018-10-19T20:41:07.515Z,101360.97
2018-10-19T20:43:36.269Z,101357.02
2018-10-19T20:46:05.334Z,101361.63
2018-10-19T20:48:34.153Z,101361.00
2018-10-19T20:51:03.867Z,101362.85
2018-10-19T20:53:33.214Z,101354.61
2018-10-19T20:56:04.102Z,101349.85
2018-10-19T20:58:32.875Z,101357.53
2018-10-19T21:01:02.215Z,101357.39
2018-10-19T21:03:30.979Z,101347.20
2018-10-19T21:06:01.024Z,101353.55
2018-10-19T21:08:30.649Z,101363.02
2018-10-19T21:10:59.527Z,101363.70
2018-10-19T21:13:29.626Z,101354.48
2018-10-19T21:15:58.587Z,101360.83
2018-10-19T21:18:27.364Z,101354.20
2018-10-19T21:20:56.784Z,101352.75
2018-10-19T21:23:27.060Z,101352.95
2018-10-19T21:25:56.066Z,101345.54
2018-10-19T21:28:25.627Z,101338.96
2018-10-19T21:30:54.386Z,101323.58
2018-10-19T21:33:23.135Z,101330.27
2018-10-19T21:35:52.693Z,101329.84
2018-10-19T21:38:21.462Z,101331.33
2018-10-19T21:40:50.240Z,101334.68
2018-10-19T21:43:19.047Z,101328.67
2018-10-19T21:45:47.817Z,101337.39
2018-10-19T21:48:17.950Z,101330.61
2018-10-19T21:50:47.432Z,101332.97
2018-10-19T21:53:17.153Z,101329.33
2018-10-19T21:55:46.402Z,101333.48
2018-10-19T21:58:15.450Z,101329.50
2018-10-19T22:00:44.872Z,101327.04
2018-10-19T22:04:16.236Z,101330.23
2018-10-19T22:06:45.201Z,101324.78
2018-10-19T22:09:14.959Z,101324.63
2018-10-19T22:11:44.286Z,101325.98
2018-10-19T22:14:13.782Z,101321.50
2018-10-19T22:16:43.195Z,101329.18
2018-10-19T22:19:12.643Z,101311.56
2018-10-19T22:21:42.403Z,101318.94
2018-10-19T22:24:11.759Z,101316.30
2018-10-19T22:26:40.902Z,101314.33
2018-10-19T22:29:10.589Z,101320.67
2018-10-19T22:31:40.109Z,101334.16
2018-10-19T22:34:09.852Z,101325.55
2018-10-19T22:36:38.801Z,101322.74
2018-10-19T22:39:08.740Z,101319.41
2018-10-19T22:41:37.905Z,101314.44
2018-10-19T22:44:06.727Z,101320.42
2018-10-19T22:46:35.763Z,101323.74
2018-10-19T22:49:06.267Z,101320.09
2018-10-19T22:51:35.434Z,101317.44
2018-10-19T22:54:04.312Z,101309.31
2018-10-19T22:56:33.957Z,101309.50
2018-10-19T22:59:03.873Z,101313.20
2018-10-19T23:01:32.700Z,101312.55
2018-10-19T23:04:01.456Z,101316.21
2018-10-19T23:06:30.269Z,101316.39
2018-10-19T23:08:59.747Z,101317.20
2018-10-19T23:11:28.534Z,101311.87
2018-10-19T23:13:58.046Z,101310.55
2018-10-19T23:16:26.874Z,101304.92
2018-10-19T23:18:55.643Z,101311.23
2018-10-19T23:21:25.396Z,101304.28
2018-10-19T23:23:54.205Z,101305.31
2018-10-19T23:26:23.826Z,101306.00
2018-10-19T23:28:52.612Z,101299.36
2018-10-19T23:31:21.467Z,101300.39
2018-10-19T23:33:50.891Z,101299.25
2018-10-19T23:36:19.748Z,101290.28
2018-10-19T23:38:48.591Z,101298.94
2018-10-19T23:41:17.409Z,101289.48
2018-10-19T23:43:46.161Z,101287.32
2018-10-19T23:46:16.027Z,101290.51
2018-10-19T23:48:44.815Z,101291.53
2018-10-19T23:51:14.555Z,101297.69
2018-10-19T23:53:44.095Z,101282.91
2018-10-19T23:56:13.757Z,101284.89
2018-10-19T23:58:42.584Z,101293.36
